createdAt,value
2023-11-24T00:01:21.037Z,62.37
2023-11-24T00:04:23.335Z,61.08
2023-11-24T00:07:26.250Z,63.98
2023-11-24T00:10:30.066Z,62.23
2023-11-24T00:13:32.264Z,61.24
2023-11-24T00:16:34.629Z,59.66
2023-11-24T00:19:36.792Z,60.49
2023-11-24T00:22:39.223Z,62.71
2023-11-24T00:25:41.381Z,62.44
2023-11-24T00:28:43.488Z,62.41
2023-11-24T00:31:47.088Z,64.09
2023-11-24T00:34:49.563Z,63.42
2023-11-24T00:37:51.671Z,64.75
2023-11-24T00:40:54.184Z,62.51
2023-11-24T00:43:56.261Z,62.98
2023-11-24T00:46:58.406Z,60.34
2023-11-24T00:50:00.749Z,59.48
2023-11-24T00:53:03.028Z,58.96
2023-11-24T00:56:05.257Z,59.91
2023-11-24T00:59:07.428Z,60.73
2023-11-24T01:02:09.598Z,60.35
2023-11-24T01:05:11.727Z,60.17
2023-11-24T01:08:13.938Z,60.39
2023-11-24T01:11:16.028Z,61.13
2023-11-24T01:14:18.237Z,61.41
2023-11-24T01:17:22.253Z,60.60
2023-11-24T01:20:26.468Z,59.51
2023-11-24T01:23:28.534Z,59.73
2023-11-24T01:26:30.907Z,61.84
2023-11-24T01:29:33.106Z,63.37
2023-11-24T01:32:35.353Z,62.96
2023-11-24T01:35:37.476Z,64.23
2023-11-24T01:38:39.828Z,65.66
2023-11-24T01:41:41.964Z,64.69
2023-11-24T01:44:44.093Z,61.00
2023-11-24T01:47:48.303Z,63.58
2023-11-24T01:50:50.478Z,63.05
2023-11-24T01:53:52.709Z,63.50
2023-11-24T01:56:54.925Z,64.96
2023-11-24T01:59:57.049Z,61.79
2023-11-24T02:02:59.309Z,63.08
2023-11-24T02:06:02.076Z,64.42
2023-11-24T02:09:04.417Z,64.87
2023-11-24T02:12:06.630Z,65.04
2023-11-24T02:15:08.941Z,64.38
2023-11-24T02:18:11.286Z,65.05
2023-11-24T02:21:13.453Z,64.12
2023-11-24T02:24:15.625Z,63.87
2023-11-24T02:27:21.706Z,67.12
2023-11-24T02:30:23.962Z,68.47
2023-11-24T02:33:26.129Z,69.89
2023-11-24T02:36:31.715Z,70.03
2023-11-24T02:39:33.934Z,69.34
2023-11-24T02:42:36.603Z,70.23
2023-11-24T02:45:38.804Z,70.26
2023-11-24T02:48:41.422Z,69.76
2023-11-24T02:51:43.697Z,69.36
2023-11-24T02:54:45.805Z,70.67
2023-11-24T02:57:48.892Z,68.83
2023-11-24T03:00:51.090Z,67.46
2023-11-24T03:03:53.652Z,67.80
2023-11-24T03:06:55.933Z,68.45
2023-11-24T03:09:58.164Z,66.58
2023-11-24T03:13:00.489Z,63.89
2023-11-24T03:16:03.303Z,64.10
2023-11-24T03:19:05.578Z,64.87
2023-11-24T03:22:08.536Z,64.82
2023-11-24T03:25:11.663Z,66.08
2023-11-24T03:28:14.334Z,68.46
2023-11-24T03:31:16.420Z,70.26
2023-11-24T03:34:18.604Z,69.30
2023-11-24T03:37:20.806Z,70.52
2023-11-24T03:40:23.025Z,67.24
2023-11-24T03:43:25.117Z,67.89
2023-11-24T03:46:27.235Z,68.88
2023-11-24T03:49:29.446Z,68.85
2023-11-24T03:52:31.585Z,69.25
2023-11-24T03:55:33.722Z,70.56
2023-11-24T03:58:36.109Z,70.06
2023-11-24T04:01:38.414Z,72.25
2023-11-24T04:04:40.671Z,72.95
2023-11-24T04:07:42.786Z,73.07
2023-11-24T04:10:44.947Z,72.37
2023-11-24T04:13:47.068Z,72.11
2023-11-24T04:16:49.245Z,71.92
2023-11-24T04:19:51.387Z,73.12
2023-11-24T04:22:53.511Z,74.62
2023-11-24T04:25:55.623Z,73.59
2023-11-24T04:28:58.719Z,74.23
2023-11-24T04:32:00.929Z,74.26
2023-11-24T04:35:03.129Z,74.58
2023-11-24T04:38:05.286Z,74.22
2023-11-24T04:41:07.988Z,72.87
2023-11-24T04:44:10.541Z,72.82
2023-11-24T04:47:12.645Z,72.65
2023-11-24T04:50:15.842Z,71.57
2023-11-24T04:53:18.218Z,70.69
2023-11-24T04:56:20.431Z,70.59
2023-11-24T04:59:23.155Z,70.56
2023-11-24T05:02:25.402Z,69.58
2023-11-24T05:05:27.531Z,71.62
2023-11-24T05:08:29.609Z,72.26
2023-11-24T05:11:31.714Z,73.73
2023-11-24T05:14:33.895Z,75.27
2023-11-24T05:17:40.064Z,75.79
2023-11-24T05:20:42.250Z,74.65
2023-11-24T05:23:44.485Z,73.67
2023-11-24T05:26:47.656Z,73.72
2023-11-24T05:29:50.802Z,72.82
2023-11-24T05:32:53.086Z,72.49
2023-11-24T05:35:57.789Z,71.64
2023-11-24T05:39:00.409Z,72.20
2023-11-24T05:42:02.656Z,71.89
2023-11-24T05:45:05.081Z,71.74
2023-11-24T05:48:07.556Z,71.59
2023-11-24T05:51:09.775Z,71.30
2023-11-24T05:54:13.816Z,70.39
2023-11-24T05:57:16.670Z,70.41
2023-11-24T06:00:19.905Z,71.39
2023-11-24T06:03:22.018Z,70.72
2023-11-24T06:06:23.885Z,70.83
2023-11-24T06:09:25.960Z,70.93
2023-11-24T06:12:30.207Z,72.66
2023-11-24T06:15:32.245Z,72.07
2023-11-24T06:18:34.404Z,71.45
2023-11-24T06:21:37.321Z,70.58
2023-11-24T06:24:39.340Z,70.04
2023-11-24T06:27:41.269Z,69.76
2023-11-24T06:30:43.539Z,69.29
2023-11-24T06:33:45.767Z,70.65
2023-11-24T06:36:47.885Z,67.23
2023-11-24T06:39:50.183Z,66.82
2023-11-24T06:42:52.168Z,66.48
2023-11-24T06:45:54.145Z,67.60
2023-11-24T06:48:56.211Z,68.51
2023-11-24T06:51:58.260Z,68.39
2023-11-24T06:55:00.451Z,68.79
2023-11-24T06:58:02.441Z,68.83
2023-11-24T07:01:06.110Z,69.40
2023-11-24T07:04:08.526Z,69.57
2023-11-24T07:07:10.532Z,68.86
2023-11-24T07:10:14.584Z,69.53
2023-11-24T07:13:17.027Z,68.41
2023-11-24T07:16:19.132Z,68.73
2023-11-24T07:19:23.136Z,71.75
2023-11-24T07:22:26.137Z,69.98
2023-11-24T07:25:28.111Z,67.73
2023-11-24T07:28:29.959Z,69.05
2023-11-24T07:31:32.008Z,67.33
2023-11-24T07:34:34.249Z,66.68
2023-11-24T07:37:36.304Z,68.57
2023-11-24T07:40:38.250Z,69.78
2023-11-24T07:43:40.370Z,65.58
2023-11-24T07:46:42.430Z,66.03
2023-11-24T07:49:44.473Z,68.76
2023-11-24T07:52:47.861Z,66.97
2023-11-24T07:55:50.492Z,68.79
2023-11-24T07:58:52.575Z,66.88
2023-11-24T08:01:54.579Z,65.18
2023-11-24T08:04:56.601Z,64.75
2023-11-24T08:07:59.430Z,66.31
2023-11-24T08:11:01.336Z,65.36
2023-11-24T08:14:06.194Z,64.75
2023-11-24T08:17:08.164Z,63.82
2023-11-24T08:20:11.879Z,63.56
2023-11-24T08:23:16.750Z,62.75
2023-11-24T08:26:19.259Z,62.69
2023-11-24T08:29:21.198Z,62.03
2023-11-24T08:32:23.128Z,61.70
2023-11-24T08:35:26.612Z,60.70
2023-11-24T08:38:28.542Z,59.79
2023-11-24T08:41:38.080Z,59.86
2023-11-24T08:44:43.034Z,59.07
2023-11-24T08:47:45.141Z,59.43
2023-11-24T08:50:47.425Z,58.61
2023-11-24T08:53:49.581Z,57.15
2023-11-24T08:56:51.984Z,57.56
2023-11-24T08:59:57.421Z,56.83
2023-11-24T09:03:00.891Z,56.98
2023-11-24T09:06:03.881Z,56.76
2023-11-24T09:09:08.983Z,55.76
2023-11-24T09:12:11.733Z,54.40
2023-11-24T09:15:13.966Z,55.04
2023-11-24T09:18:16.017Z,54.67
2023-11-24T09:21:19.439Z,51.04
2023-11-24T09:24:21.939Z,49.03
2023-11-24T09:27:23.917Z,49.78
2023-11-24T09:30:25.978Z,48.47
2023-11-24T09:33:28.028Z,48.09
2023-11-24T09:36:29.984Z,47.42
2023-11-24T09:39:31.929Z,46.04
2023-11-24T09:42:39.174Z,45.45
2023-11-24T09:45:41.136Z,46.02
2023-11-24T09:48:46.217Z,44.96
2023-11-24T09:51:48.249Z,43.90
2023-11-24T09:54:50.228Z,44.46
2023-11-24T09:57:52.328Z,43.99
2023-11-24T10:01:06.938Z,44.55
2023-11-24T10:04:10.509Z,43.82
2023-11-24T10:07:18.308Z,44.04
2023-11-24T10:10:26.073Z,43.90
2023-11-24T10:13:28.405Z,43.96
2023-11-24T10:16:31.624Z,43.65
2023-11-24T10:19:33.843Z,43.48
2023-11-24T10:22:35.831Z,41.49
2023-11-24T10:25:37.848Z,43.87
2023-11-24T10:28:40.023Z,44.44
2023-11-24T10:31:41.942Z,44.63
2023-11-24T10:34:44.820Z,45.04
2023-11-24T10:37:46.895Z,47.55
2023-11-24T10:40:50.532Z,47.41
2023-11-24T10:43:52.841Z,47.78
2023-11-24T10:46:54.805Z,46.50
2023-11-24T10:50:04.457Z,46.19
2023-11-24T10:53:10.144Z,45.82
2023-11-24T10:56:12.181Z,45.22
2023-11-24T10:59:15.162Z,44.81
2023-11-24T11:02:18.153Z,45.55
2023-11-24T11:05:20.381Z,45.77
2023-11-24T11:08:29.642Z,43.97
2023-11-24T11:11:41.194Z,44.11
2023-11-24T11:14:43.305Z,48.36
2023-11-24T11:17:49.030Z,49.02
2023-11-24T11:20:51.989Z,50.72
2023-11-24T11:23:57.457Z,50.59
2023-11-24T11:26:59.607Z,50.20
2023-11-24T11:30:01.722Z,50.45
2023-11-24T11:33:04.692Z,51.63
2023-11-24T11:36:07.084Z,51.11
2023-11-24T11:39:10.529Z,52.19
2023-11-24T11:42:12.520Z,52.16
2023-11-24T11:45:19.747Z,52.81
2023-11-24T11:48:21.900Z,51.87
2023-11-24T11:51:23.895Z,51.50
2023-11-24T11:54:25.849Z,52.72
2023-11-24T11:57:29.243Z,52.96
2023-11-24T12:00:31.495Z,51.89
2023-11-24T12:03:33.878Z,51.81
2023-11-24T12:06:35.906Z,51.82
2023-11-24T12:09:38.362Z,52.61
2023-11-24T12:12:41.546Z,51.91
2023-11-24T12:15:44.006Z,51.71
2023-11-24T12:18:51.364Z,50.74
2023-11-24T12:21:53.406Z,50.49
2023-11-24T12:24:55.540Z,50.92
2023-11-24T12:27:58.068Z,50.17
2023-11-24T12:31:02.745Z,51.42
2023-11-24T12:34:05.638Z,50.64
2023-11-24T12:37:08.196Z,50.82
2023-11-24T12:40:13.438Z,50.41
2023-11-24T12:43:15.773Z,51.04
2023-11-24T12:46:21.712Z,51.00
2023-11-24T12:49:24.054Z,49.26
2023-11-24T12:52:25.943Z,50.62
2023-11-24T12:55:27.868Z,50.67
2023-11-24T12:58:30.487Z,50.67
2023-11-24T13:01:33.355Z,51.59
2023-11-24T13:04:35.428Z,50.89
2023-11-24T13:07:38.044Z,49.67
2023-11-24T13:10:41.820Z,50.80
2023-11-24T13:13:45.045Z,51.97
2023-11-24T13:16:49.929Z,50.17
2023-11-24T13:19:53.519Z,50.30
2023-11-24T13:22:55.625Z,50.46
2023-11-24T13:25:58.354Z,50.27
2023-11-24T13:29:00.342Z,50.25
2023-11-24T13:32:03.330Z,50.42
2023-11-24T13:35:05.984Z,50.99
2023-11-24T13:38:08.088Z,51.43
2023-11-24T13:41:11.381Z,51.40
2023-11-24T13:44:13.915Z,51.41
2023-11-24T13:47:15.888Z,51.27
2023-11-24T13:50:20.001Z,51.96
2023-11-24T13:53:22.079Z,51.83
2023-11-24T13:56:25.800Z,51.35
2023-11-24T13:59:27.992Z,51.25
2023-11-24T14:02:30.069Z,51.52
2023-11-24T14:05:32.123Z,52.55
2023-11-24T14:08:37.104Z,53.38
2023-11-24T14:11:39.515Z,52.22
2023-11-24T14:14:41.681Z,53.96
2023-11-24T14:17:43.890Z,54.12
2023-11-24T14:20:48.664Z,53.16
2023-11-24T14:23:50.544Z,54.55
2023-11-24T14:26:52.566Z,54.60
2023-11-24T14:29:54.936Z,53.39
2023-11-24T14:32:59.154Z,52.94
2023-11-24T14:36:01.824Z,54.67
2023-11-24T14:39:04.661Z,55.30
2023-11-24T14:42:06.673Z,54.22
2023-11-24T14:45:10.215Z,53.98
2023-11-24T14:48:12.233Z,53.44
2023-11-24T14:51:14.219Z,53.01
2023-11-24T14:54:17.169Z,54.76
2023-11-24T14:57:21.565Z,55.74
2023-11-24T15:00:41.499Z,56.25
2023-11-24T15:03:45.571Z,54.84
2023-11-24T15:06:51.933Z,55.15
2023-11-24T15:09:54.598Z,56.62
2023-11-24T15:12:56.520Z,55.58
2023-11-24T15:15:59.957Z,55.95
2023-11-24T15:19:02.008Z,57.12
2023-11-24T15:22:10.125Z,55.27
2023-11-24T15:25:14.369Z,56.33
2023-11-24T15:28:22.296Z,55.52
2023-11-24T15:31:28.155Z,57.31
2023-11-24T15:34:30.349Z,54.86
2023-11-24T15:37:32.329Z,54.46
2023-11-24T15:40:34.239Z,58.79
2023-11-24T15:43:36.129Z,58.11
2023-11-24T15:46:39.745Z,58.62
2023-11-24T15:49:42.891Z,56.04
2023-11-24T15:52:45.441Z,56.75
2023-11-24T15:55:48.054Z,55.97
2023-11-24T15:58:52.773Z,56.44
2023-11-24T16:01:58.545Z,54.89
2023-11-24T16:05:02.558Z,54.52
2023-11-24T16:08:09.040Z,54.09
2023-11-24T16:11:11.820Z,55.39
2023-11-24T16:14:14.215Z,56.49
2023-11-24T16:17:16.234Z,53.58
2023-11-24T16:20:18.639Z,54.45
2023-11-24T16:23:21.662Z,57.25
2023-11-24T16:26:24.632Z,56.25
2023-11-24T16:29:26.466Z,58.38
2023-11-24T16:32:29.065Z,59.19
2023-11-24T16:35:31.051Z,58.22
2023-11-24T16:38:35.834Z,58.12
2023-11-24T16:41:38.365Z,59.26
2023-11-24T16:44:40.544Z,58.06
2023-11-24T16:47:43.946Z,56.27
2023-11-24T16:50:47.356Z,56.55
2023-11-24T16:53:49.606Z,56.17
2023-11-24T16:56:51.620Z,55.43
2023-11-24T16:59:54.246Z,56.33
2023-11-24T17:02:56.476Z,55.71
2023-11-24T17:05:58.825Z,54.78
2023-11-24T17:09:00.964Z,54.96
2023-11-24T17:12:03.114Z,54.67
2023-11-24T17:15:06.220Z,55.95
2023-11-24T17:18:10.726Z,54.91
2023-11-24T17:21:13.863Z,54.89
2023-11-24T17:24:16.824Z,54.91
2023-11-24T17:27:19.030Z,54.68
2023-11-24T17:30:23.767Z,53.48
2023-11-24T17:33:25.986Z,53.05
2023-11-24T17:36:28.156Z,55.14
2023-11-24T17:39:30.251Z,57.20
2023-11-24T17:42:32.480Z,56.54
2023-11-24T17:45:35.675Z,57.38
2023-11-24T17:48:37.877Z,55.98
2023-11-24T17:51:42.596Z,55.91
2023-11-24T17:54:45.481Z,56.29
2023-11-24T17:57:52.062Z,56.88
2023-11-24T18:00:54.658Z,58.47
2023-11-24T18:03:56.952Z,57.96
2023-11-24T18:06:59.303Z,58.27
2023-11-24T18:10:01.594Z,57.39
2023-11-24T18:13:03.979Z,54.48
2023-11-24T18:16:07.818Z,57.17
2023-11-24T18:19:10.180Z,56.23
2023-11-24T18:22:13.621Z,57.00
2023-11-24T18:25:15.816Z,57.65
2023-11-24T18:28:17.959Z,55.43
2023-11-24T18:31:20.912Z,55.66
2023-11-24T18:34:39.580Z,56.53
2023-11-24T18:37:43.184Z,57.53
2023-11-24T18:40:45.339Z,58.58
2023-11-24T18:43:47.546Z,58.32
2023-11-24T18:46:49.689Z,56.77
2023-11-24T18:49:51.840Z,59.33
2023-11-24T18:52:53.986Z,58.58
2023-11-24T18:55:56.134Z,57.37
2023-11-24T18:58:58.324Z,61.52
2023-11-24T19:02:00.473Z,58.91
2023-11-24T19:05:02.776Z,57.83
2023-11-24T19:08:05.875Z,57.61
2023-11-24T19:11:10.075Z,58.16
2023-11-24T19:14:12.169Z,61.69
2023-11-24T19:17:15.867Z,57.50
2023-11-24T19:20:21.172Z,58.94
2023-11-24T19:23:23.502Z,60.22
2023-11-24T19:26:25.673Z,60.98
2023-11-24T19:29:27.838Z,58.59
2023-11-24T19:32:30.091Z,57.92
2023-11-24T19:35:32.344Z,56.29
2023-11-24T19:38:34.474Z,55.17
2023-11-24T19:41:36.696Z,56.78
2023-11-24T19:44:39.113Z,57.45
2023-11-24T19:47:41.359Z,55.73
2023-11-24T19:50:43.493Z,57.45
2023-11-24T19:53:48.727Z,56.15
2023-11-24T19:56:52.270Z,58.70
2023-11-24T19:59:56.525Z,56.08
2023-11-24T20:02:58.936Z,59.97
2023-11-24T20:06:01.328Z,55.90
2023-11-24T20:09:04.991Z,58.71
2023-11-24T20:12:10.560Z,57.67
2023-11-24T20:15:12.945Z,58.56
2023-11-24T20:18:15.181Z,56.98
2023-11-24T20:21:17.425Z,57.21
2023-11-24T20:24:19.604Z,58.14
2023-11-24T20:27:22.728Z,60.58
2023-11-24T20:30:24.909Z,59.36
2023-11-24T20:33:27.061Z,60.10
2023-11-24T20:36:29.544Z,58.17
2023-11-24T20:39:31.632Z,57.29
2023-11-24T20:42:33.778Z,58.40
2023-11-24T20:45:36.757Z,59.87
2023-11-24T20:48:39.547Z,59.99
2023-11-24T20:51:41.722Z,60.52
2023-11-24T20:54:45.287Z,61.12
2023-11-24T20:57:48.100Z,60.21
2023-11-24T21:00:50.349Z,60.31
2023-11-24T21:03:52.585Z,60.17
2023-11-24T21:06:55.351Z,55.97
2023-11-24T21:09:57.638Z,58.59
2023-11-24T21:12:59.851Z,58.74
2023-11-24T21:16:02.077Z,57.72
2023-11-24T21:19:05.814Z,59.93
2023-11-24T21:22:07.953Z,57.73
2023-11-24T21:25:10.252Z,57.94
2023-11-24T21:28:12.401Z,58.16
2023-11-24T21:31:18.248Z,58.47
2023-11-24T21:34:20.502Z,57.31
2023-11-24T21:37:27.893Z,56.29
2023-11-24T21:40:30.084Z,57.94
2023-11-24T21:43:32.364Z,57.71
2023-11-24T21:46:34.837Z,56.04
2023-11-24T21:49:38.441Z,55.48
2023-11-24T21:52:40.786Z,54.55
2023-11-24T21:55:44.281Z,55.25
2023-11-24T21:58:46.608Z,54.17
2023-11-24T22:01:49.263Z,54.88
2023-11-24T22:04:51.634Z,56.15
2023-11-24T22:07:53.806Z,57.24
2023-11-24T22:10:55.935Z,58.78
2023-11-24T22:13:58.152Z,56.33
2023-11-24T22:17:00.987Z,55.98
2023-11-24T22:20:12.263Z,58.46
2023-11-24T22:23:14.598Z,57.88
2023-11-24T22:26:20.083Z,57.25
2023-11-24T22:29:24.600Z,58.60
2023-11-24T22:32:28.507Z,59.00
2023-11-24T22:35:30.625Z,60.13
2023-11-24T22:38:32.856Z,61.08
2023-11-24T22:41:34.942Z,60.39
2023-11-24T22:44:37.048Z,59.61
2023-11-24T22:47:39.930Z,59.08
2023-11-24T22:50:42.308Z,58.63
2023-11-24T22:53:44.392Z,57.41
2023-11-24T22:56:46.713Z,58.29
2023-11-24T22:59:51.962Z,57.71
2023-11-24T23:02:54.354Z,58.82
2023-11-24T23:05:56.507Z,57.48
2023-11-24T23:08:58.756Z,57.46
2023-11-24T23:12:00.837Z,57.79
2023-11-24T23:15:02.923Z,57.65
2023-11-24T23:18:05.772Z,59.56
2023-11-24T23:21:08.467Z,57.66
2023-11-24T23:24:12.250Z,59.16
2023-11-24T23:27:14.452Z,56.93
2023-11-24T23:30:16.716Z,59.07
2023-11-24T23:33:19.121Z,59.07
2023-11-24T23:36:21.349Z,59.52
2023-11-24T23:39:25.009Z,61.44
2023-11-24T23:42:28.314Z,61.97
2023-11-24T23:45:30.483Z,59.05
2023-11-24T23:48:33.485Z,60.51
2023-11-24T23:51:36.178Z,60.56
2023-11-24T23:54:38.298Z,62.79
2023-11-24T23:57:40.424Z,61.38
